Flight Track Log - Related Links

Times and Time Zones

All times are in EST time to prevent confusion due to time zone crossing. See the VH-OZO flight status page for this flight to view local times or setup timezone preferences in your user account.

Time Position Orientation Groundspeed Altitude Reporting Facility
EST Latitude Longitude Course Direction KTS MPH feet Rate Location/Type
Fri 06:42:52 AM -34.7765 117.3280 344° North 8,000  Level Aus ATC (Calculated)
Fri 06:43:48 AM -34.7765 117.3280 344° North 8,000 -336 Level Aus ATC (Calculated)
Fri 06:45:00 AM -34.7239 117.3067 341° North  Level FlightAware Approximate
Fri 06:45:48 AM -34.7253 117.3072 345° North 8,000  Level Aus ATC (Calculated)
Fri 06:46:00 AM -34.6802 117.2889 342° North  Level FlightAware Approximate
Fri 06:47:00 AM -34.6728 117.2859 342° North  Level FlightAware Approximate
Fri 06:48:00 AM -34.6290 117.2681 342° North  Level FlightAware Approximate
Fri 06:49:00 AM -34.5853 117.2503 342° North  Level FlightAware Approximate
Fri 06:49:07 AM -34.5825 117.2612 342° North 161 185 5,900  Level Aus ATC (RADAR)
Fri 06:49:37 AM -34.5634 117.2495 333° Northwest 154 177 6,000 185 Climbing Aus ATC (RADAR)
Fri 06:50:12 AM -34.5422 117.2392 338° Northwest 144 166 6,100 58 Climbing Aus ATC (RADAR)
Fri 06:51:21 AM -34.5010 117.2082 328° Northwest 162 186 6,100 76 Level Aus ATC (RADAR)
Fri 06:51:31 AM -34.4936 117.2076 356° North 162 186 6,200  Climbing Aus ATC (RADAR)
Fri 06:52:36 AM -34.4542 117.1835 333° Northwest 154 177 6,100 -67 Descending Aus ATC (RADAR)
Fri 06:53:01 AM -34.4407 117.1686 318° Northwest 151 174 6,100  Level Aus ATC (RADAR)
Fri 06:55:26 AM -34.3492 117.1239 338° Northwest 182 209 6,100  Level Aus ATC (RADAR)
Fri 06:56:01 AM -34.3303 117.1046 320° Northwest 155 178 6,100  Level Aus ATC (RADAR)
Fri 06:56:36 AM -34.3080 117.0941 339° North 146 168 6,100  Level Aus ATC (RADAR)
Fri 06:57:16 AM -34.2824 117.0802 336° Northwest 149 171 6,100  Level Aus ATC (RADAR)
Fri 06:57:51 AM -34.2603 117.0665 333° Northwest 150 173 6,100  Level Aus ATC (RADAR)
Fri 06:58:21 AM -34.2421 117.0508 324° Northwest 154 177 6,100  Level Aus ATC (RADAR)
Fri 06:59:21 AM -34.2033 117.0297 336° Northwest 152 175 6,100  Level Aus ATC (RADAR)
Fri 06:59:46 AM -34.1872 117.0202 334° Northwest 153 176 6,100  Level Aus ATC (RADAR)
Fri 07:00:50 AM -34.1453 116.9952 334° Northwest 152 175 6,100  Level Aus ATC (RADAR)
Fri 07:01:50 AM -34.1062 116.9746 336° Northwest 152 175 6,100 -50 Level Aus ATC (RADAR)
Fri 07:02:50 AM -34.0675 116.9511 333° Northwest 156 180 6,000  Descending Aus ATC (RADAR)
Fri 07:03:55 AM -34.0239 116.9314 339° North 153 176 6,100 46 Climbing Aus ATC (RADAR)
Fri 07:05:00 AM -33.9799 116.9117 340° North 156 180 6,100  Level Aus ATC (RADAR)
Fri 07:06:05 AM -33.9373 116.8918 339° North 149 171 6,100  Level Aus ATC (RADAR)
Fri 07:07:10 AM -33.8974 116.8629 329° Northwest 151 174 6,100  Level Aus ATC (RADAR)
Fri 07:08:15 AM -33.8559 116.8384 334° Northwest 151 174 6,100  Level Aus ATC (RADAR)
Fri 07:09:20 AM -33.8142 116.8133 333° Northwest 155 178 6,100 -114 Level Aus ATC (RADAR)
Fri 07:10:00 AM -33.7881 116.7978 334° Northwest 158 182 5,900 -45 Descending Aus ATC (RADAR)
Fri 07:11:34 AM -33.7255 116.7659 337° Northwest 155 178 6,000 75 Climbing Aus ATC (RADAR)
Fri 07:12:39 AM -33.6825 116.7425 336° Northwest 155 178 6,100  Climbing Aus ATC (RADAR)
Fri 07:13:39 AM -33.6430 116.7201 335° Northwest 156 180 6,000  Descending Aus ATC (RADAR)
Fri 07:14:49 AM -33.5961 116.6954 336° Northwest 156 180 6,100 44 Climbing Aus ATC (RADAR)
Fri 07:15:54 AM -33.5529 116.6709 335° Northwest 158 182 6,100  Level Aus ATC (RADAR)
Fri 07:16:59 AM -33.5086 116.6500 339° North 156 180 6,100  Level Aus ATC (RADAR)
Fri 07:17:59 AM -33.4686 116.6288 336° Northwest 157 181 6,100  Level Aus ATC (RADAR)
Fri 07:18:59 AM -33.4303 116.6041 332° Northwest 156 180 6,100  Level Aus ATC (RADAR)
Fri 07:20:04 AM -33.3871 116.5796 335° Northwest 158 182 6,100  Level Aus ATC (RADAR)
Fri 07:21:09 AM -33.3443 116.5561 335° Northwest 157 181 6,100  Level Aus ATC (RADAR)
Fri 07:22:13 AM -33.3010 116.5351 338° Northwest 155 178 6,100  Level Aus ATC (RADAR)
Fri 07:23:18 AM -33.2593 116.5080 332° Northwest 154 177 6,100 -46 Level Aus ATC (RADAR)
Fri 07:24:23 AM -33.2162 116.4838 335° Northwest 155 178 6,000  Descending Aus ATC (RADAR)
Fri 07:25:28 AM -33.1735 116.4599 335° Northwest 155 178 6,100 48 Climbing Aus ATC (RADAR)
Fri 07:26:28 AM -33.1348 116.4398 336° Northwest 150 173 6,100  Level Aus ATC (RADAR)
Fri 07:27:38 AM -33.0891 116.4159 336° Northwest 152 175 6,100  Level Aus ATC (RADAR)
Fri 07:28:38 AM -33.0503 116.3938 334° Northwest 153 176 6,100  Level Aus ATC (RADAR)
Fri 07:29:48 AM -33.0050 116.3696 336° Northwest 150 173 6,100  Level Aus ATC (RADAR)
Fri 07:30:58 AM -32.9596 116.3459 336° Northwest 151 174 6,100  Level Aus ATC (RADAR)
Fri 07:31:58 AM -32.9212 116.3217 332° Northwest 156 180 6,100  Level Aus ATC (RADAR)
Fri 07:33:07 AM -32.8747 116.2986 337° Northwest 155 178 6,100  Level Aus ATC (RADAR)
Fri 07:34:12 AM -32.8309 116.2750 336° Northwest 158 182 6,100 -48 Level Aus ATC (RADAR)
Fri 07:35:12 AM -32.7899 116.2521 335° Northwest 162 186 6,000  Descending Aus ATC (RADAR)
Fri 07:36:27 AM -32.7388 116.2254 336° Northwest 157 181 6,100 44 Climbing Aus ATC (RADAR)
Fri 07:37:27 AM -32.6984 116.2032 335° Northwest 159 183 6,100  Level Aus ATC (RADAR)
Fri 07:38:32 AM -32.6551 116.1803 336° Northwest 157 181 6,100 -48 Level Aus ATC (RADAR)
Fri 07:39:32 AM -32.6150 116.1579 335° Northwest 156 180 6,000 -350 Descending Aus ATC (RADAR)
Fri 07:40:32 AM -32.5719 116.1314 333° Northwest 175 201 5,400 -528 Descending Aus ATC (RADAR)
Fri 07:41:37 AM -32.5217 116.1070 338° Northwest 180 207 4,900 -554 Descending Aus ATC (RADAR)
Fri 07:42:42 AM -32.4717 116.0824 337° Northwest 180 207 4,200 -415 Descending Aus ATC (RADAR)
Fri 07:43:47 AM -32.4227 116.0554 335° Northwest 170 196 4,000 -97 Descending Aus ATC (RADAR)
Fri 07:44:46 AM -32.3814 116.0326 335° Northwest 163 188 4,000 -47 Level Aus ATC (RADAR)
Fri 07:45:56 AM -32.3344 116.0078 336° Northwest 158 182 3,900 -267 Descending Aus ATC (RADAR)
Fri 07:47:01 AM -32.2874 115.9813 335° Northwest 173 199 3,400 -480 Descending Aus ATC (RADAR)
Fri 07:48:01 AM -32.2416 115.9576 336° Northwest 181 208 2,900 -508 Descending Aus ATC (RADAR)
Fri 07:49:11 AM -32.1891 115.9304 336° Northwest 173 199 2,300 -554 Descending Aus ATC (RADAR)
Fri 07:50:11 AM -32.1462 115.9028 331° Northwest 171 197 1,700 -528 Descending Aus ATC (RADAR)
Fri 07:51:16 AM -32.1066 115.9178 18° North 153 176 1,200 -462 Descending Aus ATC (RADAR)
Fri 07:52:21 AM -32.0784 115.9089 345° North 113 130 700 -462 Descending Aus ATC (RADAR)

Login

Don't have an account? Register now (free) for customized features, flight alerts, and more!